createdAt,value
2022-10-23T06:14:13.423Z,101190.00
2022-10-23T06:16:51.858Z,101196.19
2022-10-23T06:19:29.380Z,101191.72
2022-10-23T06:22:09.450Z,101199.34
2022-10-23T06:25:12.944Z,101194.75
2022-10-23T06:27:50.109Z,101193.06
2022-10-23T06:30:30.319Z,101183.84
2022-10-23T06:33:07.468Z,101184.56
2022-10-23T06:35:44.439Z,101189.81
2022-10-23T06:38:23.388Z,101194.06
2022-10-23T06:41:04.702Z,101188.59
2022-10-23T06:43:46.259Z,101192.00
2022-10-23T06:46:38.046Z,101191.63
2022-10-23T06:49:24.548Z,101188.72
2022-10-23T06:52:03.208Z,101193.81
2022-10-23T06:54:40.940Z,101206.16
2022-10-23T06:57:30.048Z,101203.41
2022-10-23T07:00:08.374Z,101208.38
2022-10-23T07:02:56.353Z,101212.47
2022-10-23T07:05:33.420Z,101212.25
2022-10-23T07:08:11.357Z,101208.34
2022-10-23T07:10:52.098Z,101196.47
2022-10-23T07:13:29.673Z,101200.59
2022-10-23T07:16:23.438Z,101195.84
2022-10-23T07:19:04.126Z,101206.03
2022-10-23T07:21:59.978Z,101211.84
2022-10-23T07:24:50.511Z,101215.00
2022-10-23T07:27:31.687Z,101206.38
2022-10-23T07:30:13.639Z,101210.22
2022-10-23T07:32:56.698Z,101207.88
2022-10-23T07:35:43.487Z,101211.50
2022-10-23T07:38:24.330Z,101197.78
2022-10-23T07:41:07.783Z,101207.09
2022-10-23T07:43:48.535Z,101209.13
2022-10-23T07:46:26.461Z,101211.16
2022-10-23T07:49:05.529Z,101209.19
2022-10-23T07:51:50.452Z,101209.59
2022-10-23T07:54:29.670Z,101203.97
2022-10-23T07:57:27.047Z,101207.09
2022-10-23T08:00:18.926Z,101204.06
2022-10-23T08:03:05.048Z,101202.66
2022-10-23T08:05:43.896Z,101206.66
2022-10-23T08:08:24.430Z,101207.97
2022-10-23T08:11:04.787Z,101206.72
2022-10-23T08:13:52.600Z,101207.88
2022-10-23T08:16:30.683Z,101204.25
2022-10-23T08:19:14.032Z,101199.06
2022-10-23T08:21:54.985Z,101212.19
2022-10-23T08:24:34.405Z,101211.38
2022-10-23T08:27:11.373Z,101208.31
2022-10-23T08:29:53.087Z,101215.94
2022-10-23T08:32:33.505Z,101219.06
2022-10-23T08:35:13.346Z,101213.44
2022-10-23T08:37:50.371Z,101210.38
2022-10-23T08:40:30.202Z,101217.97
2022-10-23T08:43:33.760Z,101217.56
2022-10-23T08:46:32.319Z,101222.84
2022-10-23T08:49:48.772Z,101218.81
2022-10-23T08:52:33.390Z,101232.19
2022-10-23T08:55:23.091Z,101225.34
2022-10-23T08:58:11.208Z,101230.25
2022-10-23T09:00:52.919Z,101225.19
2022-10-23T09:03:30.295Z,101233.63
2022-10-23T09:06:19.347Z,101233.34
2022-10-23T09:09:08.553Z,101233.63
2022-10-23T09:11:53.281Z,101240.94
2022-10-23T09:14:58.783Z,101239.47
2022-10-23T09:17:39.482Z,101243.97
2022-10-23T09:20:24.729Z,101238.31
2022-10-23T09:23:04.985Z,101244.66
2022-10-23T09:25:44.879Z,101246.75
2022-10-23T09:28:25.904Z,101248.75
2022-10-23T09:31:15.157Z,101247.06
2022-10-23T09:34:00.077Z,101251.75
2022-10-23T09:36:37.638Z,101241.63
2022-10-23T09:39:27.708Z,101236.88
2022-10-23T09:42:24.128Z,101226.75
2022-10-23T09:45:02.216Z,101234.03
2022-10-23T09:47:42.092Z,101230.16
2022-10-23T09:50:24.678Z,101238.03
2022-10-23T09:53:01.860Z,101229.97
2022-10-23T09:55:39.238Z,101228.16
2022-10-23T09:58:26.718Z,101237.16
2022-10-23T10:01:04.675Z,101238.00
2022-10-23T10:04:00.115Z,101238.72
2022-10-23T10:06:38.231Z,101245.34
2022-10-23T10:09:18.497Z,101245.34
2022-10-23T10:12:00.438Z,101246.75
2022-10-23T10:15:05.408Z,101235.47
2022-10-23T10:17:50.948Z,101240.41
2022-10-23T10:21:01.325Z,101247.84
2022-10-23T10:23:50.678Z,101246.44
2022-10-23T10:26:41.729Z,101254.06
2022-10-23T10:29:33.761Z,101256.56
2022-10-23T10:32:27.708Z,101254.72
2022-10-23T10:35:26.702Z,101253.19
2022-10-23T10:38:28.593Z,101258.53
2022-10-23T10:41:48.189Z,101265.00
2022-10-23T10:44:49.862Z,101265.84
2022-10-23T10:47:34.066Z,101268.75
2022-10-23T10:50:22.747Z,101272.28
2022-10-23T10:53:28.927Z,101277.63
2022-10-23T10:56:14.840Z,101267.91
2022-10-23T10:58:56.920Z,101263.53
2022-10-23T11:01:41.414Z,101266.34
2022-10-23T11:04:33.105Z,101273.66
2022-10-23T11:07:14.965Z,101280.97
2022-10-23T11:09:55.475Z,101277.84
2022-10-23T11:12:32.734Z,101265.47
2022-10-23T11:15:18.515Z,101277.34
2022-10-23T11:18:00.334Z,101272.44
2022-10-23T11:20:57.300Z,101270.91
2022-10-23T11:24:24.698Z,101262.47
2022-10-23T11:27:22.003Z,101272.75
2022-10-23T11:30:22.501Z,101268.94
2022-10-23T11:33:42.589Z,101270.06
2022-10-23T11:36:24.182Z,101259.38
2022-10-23T11:39:19.282Z,101267.56
2022-10-23T11:41:59.542Z,101268.41
2022-10-23T11:44:50.494Z,101254.34
2022-10-23T11:47:40.406Z,101252.69
2022-10-23T11:50:31.802Z,101257.47
2022-10-23T11:53:26.335Z,101254.41
2022-10-23T11:56:07.244Z,101248.47
2022-10-23T11:58:51.175Z,101239.97
2022-10-23T12:01:45.947Z,101240.16
2022-10-23T12:04:29.594Z,101233.63
2022-10-23T12:07:19.996Z,101233.00
2022-10-23T12:10:01.133Z,101227.88
2022-10-23T12:12:43.757Z,101231.56
2022-10-23T12:15:27.756Z,101234.81
2022-10-23T12:18:20.146Z,101228.72
2022-10-23T12:21:00.685Z,101232.41
2022-10-23T12:24:13.754Z,101240.72
2022-10-23T12:27:05.066Z,101247.88
2022-10-23T12:30:17.773Z,101247.69
2022-10-23T12:33:17.893Z,101237.41
2022-10-23T12:36:31.822Z,101240.50
2022-10-23T12:39:31.525Z,101226.22
2022-10-23T12:42:14.553Z,101227.16
2022-10-23T12:45:03.035Z,101210.69
2022-10-23T12:47:40.748Z,101218.34
2022-10-23T12:50:29.495Z,101212.47
2022-10-23T12:53:10.151Z,101213.53
2022-10-23T12:55:54.910Z,101214.28
2022-10-23T12:58:36.097Z,101220.91
2022-10-23T13:01:28.344Z,101209.09
2022-10-23T13:04:20.186Z,101213.72
2022-10-23T13:07:02.339Z,101219.97
2022-10-23T13:09:45.094Z,101212.56
2022-10-23T13:12:48.349Z,101225.41
2022-10-23T13:15:27.747Z,101223.63
2022-10-23T13:18:07.746Z,101226.28
2022-10-23T13:20:47.608Z,101228.50
2022-10-23T13:23:35.241Z,101230.75
2022-10-23T13:26:34.928Z,101231.41
2022-10-23T13:32:14.268Z,101238.19
2022-10-23T13:35:04.118Z,101234.94
2022-10-23T13:37:48.717Z,101237.16
2022-10-23T13:40:31.396Z,101231.25
2022-10-23T13:43:20.644Z,101248.88
2022-10-23T13:45:57.627Z,101245.47
2022-10-23T13:48:35.412Z,101253.69
2022-10-23T13:51:18.312Z,101254.44
2022-10-23T13:54:01.353Z,101252.16
2022-10-23T13:56:43.751Z,101248.06
2022-10-23T13:59:23.410Z,101256.13
2022-10-23T14:02:01.202Z,101243.97
2022-10-23T14:04:38.932Z,101237.47
2022-10-23T14:07:16.022Z,101237.22
2022-10-23T14:09:55.090Z,101235.91
2022-10-23T14:12:35.648Z,101235.47
2022-10-23T14:15:16.391Z,101227.88
2022-10-23T14:17:58.935Z,101235.22
2022-10-23T14:20:38.557Z,101224.78
2022-10-23T14:23:20.300Z,101215.19
2022-10-23T14:25:59.210Z,101227.78
2022-10-23T14:28:40.808Z,101217.78
2022-10-23T14:31:21.110Z,101223.75
2022-10-23T14:34:02.020Z,101211.91
2022-10-23T14:36:49.733Z,101218.69
2022-10-23T14:39:28.161Z,101230.59
2022-10-23T14:42:05.982Z,101224.09
2022-10-23T14:44:47.148Z,101219.06
2022-10-23T14:47:24.750Z,101222.59
2022-10-23T14:50:07.016Z,101230.09
2022-10-23T14:52:46.549Z,101227.28
2022-10-23T14:55:27.507Z,101229.56
2022-10-23T14:58:13.660Z,101232.13
2022-10-23T15:01:05.808Z,101231.25
2022-10-23T15:03:45.005Z,101234.06
2022-10-23T15:06:26.635Z,101230.66
2022-10-23T15:09:09.555Z,101230.41
2022-10-23T15:11:54.512Z,101234.47
2022-10-23T15:14:34.615Z,101235.03
2022-10-23T15:17:15.550Z,101234.03
2022-10-23T15:19:56.366Z,101244.59
2022-10-23T15:22:38.892Z,101241.06
2022-10-23T15:25:18.244Z,101248.47
2022-10-23T15:28:00.552Z,101255.75
2022-10-23T15:30:44.124Z,101254.31
2022-10-23T15:33:29.014Z,101263.34
2022-10-23T15:36:06.247Z,101272.97
2022-10-23T15:38:52.967Z,101264.28
2022-10-23T15:41:41.035Z,101271.91
2022-10-23T15:44:32.477Z,101265.03
2022-10-23T15:47:14.949Z,101263.72
2022-10-23T15:50:03.937Z,101257.72
2022-10-23T15:52:46.932Z,101269.63
2022-10-23T15:55:36.077Z,101267.47
2022-10-23T15:58:18.515Z,101267.38
2022-10-23T16:00:56.984Z,101266.31
2022-10-23T16:03:43.595Z,101278.66
2022-10-23T16:06:34.656Z,101277.69
2022-10-23T16:09:23.969Z,101278.66
2022-10-23T16:12:06.363Z,101281.31
2022-10-23T16:14:52.006Z,101283.19
2022-10-23T16:17:40.158Z,101282.72
2022-10-23T16:20:23.222Z,101276.41
2022-10-23T16:23:05.364Z,101277.09
2022-10-23T16:25:44.496Z,101273.56
2022-10-23T16:28:22.972Z,101281.25
2022-10-23T16:31:02.812Z,101291.75
2022-10-23T16:33:40.379Z,101293.09
2022-10-23T16:36:17.895Z,101289.28
2022-10-23T16:39:25.896Z,101288.03
2022-10-23T16:42:42.525Z,101290.88
2022-10-23T16:45:25.079Z,101289.00
2022-10-23T16:48:02.732Z,101299.47
2022-10-23T16:50:43.230Z,101287.56
2022-10-23T16:53:22.798Z,101291.63
2022-10-23T16:56:03.989Z,101289.31
2022-10-23T16:58:47.436Z,101297.09
2022-10-23T17:01:27.534Z,101292.19
2022-10-23T17:04:05.946Z,101301.31
2022-10-23T17:06:44.996Z,101297.41
2022-10-23T17:09:25.637Z,101296.88
2022-10-23T17:12:05.664Z,101296.34
2022-10-23T17:14:44.838Z,101290.63
2022-10-23T17:17:23.476Z,101294.66
2022-10-23T17:20:01.699Z,101295.94
2022-10-23T17:22:40.357Z,101294.56
2022-10-23T17:25:18.315Z,101294.84
2022-10-23T17:27:58.507Z,101295.19
2022-10-23T17:30:41.005Z,101295.69
2022-10-23T17:33:23.396Z,101294.22
2022-10-23T17:36:05.998Z,101308.69
2022-10-23T17:38:45.188Z,101299.50
2022-10-23T17:41:26.668Z,101310.44
2022-10-23T17:44:09.117Z,101304.59
2022-10-23T17:46:50.436Z,101307.69
2022-10-23T17:49:28.775Z,101303.41
2022-10-23T17:52:10.956Z,101303.00
2022-10-23T17:54:50.745Z,101313.06
2022-10-23T17:57:29.038Z,101310.72
2022-10-23T18:00:13.580Z,101309.84
2022-10-23T18:02:50.786Z,101316.41
2022-10-23T18:05:28.472Z,101306.28
2022-10-23T18:08:06.868Z,101307.28
2022-10-23T18:10:44.808Z,101296.84
2022-10-23T18:13:25.328Z,101300.44
2022-10-23T18:16:11.641Z,101299.50
2022-10-23T18:18:52.732Z,101297.22
2022-10-23T18:21:31.780Z,101310.72
2022-10-23T18:24:11.981Z,101317.38
2022-10-23T18:26:51.139Z,101315.66
2022-10-23T18:29:29.171Z,101315.66
2022-10-23T18:32:18.289Z,101317.16
2022-10-23T18:34:56.421Z,101304.88
2022-10-23T18:37:38.983Z,101314.50
2022-10-23T18:40:23.126Z,101313.75
2022-10-23T18:43:07.006Z,101304.88
2022-10-23T18:45:47.572Z,101315.81
2022-10-23T18:48:28.089Z,101307.13
2022-10-23T18:51:05.801Z,101300.13
2022-10-23T18:53:43.789Z,101301.81
2022-10-23T18:56:25.251Z,101294.81
2022-10-23T19:02:16.287Z,101298.41
2022-10-23T19:05:01.248Z,101294.81
2022-10-23T19:07:39.698Z,101298.41
2022-10-23T19:10:23.619Z,101289.69
2022-10-23T19:13:07.384Z,101272.81
2022-10-23T19:15:46.141Z,101273.78
2022-10-23T19:18:25.822Z,101271.88
2022-10-23T19:21:07.184Z,101259.56
2022-10-23T19:23:47.032Z,101260.72
2022-10-23T19:26:26.998Z,101259.97
2022-10-23T19:29:06.215Z,101254.66
2022-10-23T19:31:50.359Z,101251.44
2022-10-23T19:34:28.533Z,101242.75
2022-10-23T19:37:09.460Z,101244.66
2022-10-23T19:39:48.913Z,101232.53
2022-10-23T19:42:27.401Z,101237.00
2022-10-23T19:45:05.381Z,101229.22
2022-10-23T19:47:47.025Z,101227.44
2022-10-23T19:50:30.587Z,101238.03
2022-10-23T19:53:11.291Z,101229.78
2022-10-23T19:55:49.155Z,101234.44
2022-10-23T19:58:27.423Z,101228.25
2022-10-23T22:20:33.274Z,101220.56
2022-10-23T22:23:10.422Z,101216.00
2022-10-23T22:25:47.091Z,101221.09
2022-10-23T22:28:24.201Z,101218.97
2022-10-23T22:31:00.872Z,101220.44
2022-10-23T22:33:37.943Z,101213.13
